createdAt,value
2023-09-06T00:03:30.036Z,2.42
2023-09-06T00:08:34.529Z,2.60
2023-09-06T00:13:36.310Z,2.40
2023-09-06T00:18:37.889Z,2.70
2023-09-06T00:23:40.835Z,2.35
2023-09-06T00:28:41.735Z,2.55
2023-09-06T00:33:42.944Z,2.20
2023-09-06T00:38:43.752Z,2.97
2023-09-06T00:43:44.614Z,2.70
2023-09-06T00:48:50.579Z,2.42
2023-09-06T00:53:51.924Z,2.42
2023-09-06T00:58:53.158Z,3.28
2023-09-06T01:03:54.057Z,2.60
2023-09-06T01:08:59.521Z,2.53
2023-09-06T01:14:00.460Z,2.55
2023-09-06T01:19:02.176Z,2.37
2023-09-06T01:24:05.733Z,2.50
2023-09-06T01:29:06.781Z,2.60
2023-09-06T01:34:07.682Z,2.72
2023-09-06T01:39:09.218Z,2.92
2023-09-06T01:44:10.066Z,2.72
2023-09-06T01:49:11.051Z,2.80
2023-09-06T01:54:11.902Z,2.80
2023-09-06T01:59:12.953Z,2.97
2023-09-06T02:04:13.845Z,2.28
2023-09-06T02:09:14.729Z,2.83
2023-09-06T02:14:15.530Z,2.42
2023-09-06T02:19:17.370Z,2.75
2023-09-06T02:24:18.793Z,2.72
2023-09-06T02:29:19.786Z,2.87
2023-09-06T02:34:21.075Z,2.67
2023-09-06T02:39:21.901Z,3.15
2023-09-06T02:44:24.113Z,3.20
2023-09-06T02:49:26.783Z,2.83
2023-09-06T02:54:27.970Z,3.05
2023-09-06T02:59:29.795Z,2.83
2023-09-06T03:04:35.729Z,2.72
2023-09-06T03:09:39.623Z,3.15
2023-09-06T03:14:44.869Z,2.47
2023-09-06T03:19:47.445Z,2.70
2023-09-06T03:24:48.809Z,2.85
2023-09-06T03:29:51.482Z,3.10
2023-09-06T03:34:55.296Z,3.15
2023-09-06T03:39:56.175Z,2.40
2023-09-06T03:44:57.025Z,2.70
2023-09-06T03:49:59.929Z,2.85
2023-09-06T03:55:03.255Z,3.47
2023-09-06T04:00:23.394Z,2.67
2023-09-06T04:05:26.208Z,2.58
2023-09-06T04:15:38.647Z,2.72
2023-09-06T04:20:47.192Z,2.62
2023-09-06T04:25:50.174Z,2.85
2023-09-06T04:30:54.516Z,2.33
2023-09-06T04:35:58.030Z,3.37
2023-09-06T04:40:59.347Z,3.10
2023-09-06T04:46:02.192Z,3.00
2023-09-06T04:51:05.462Z,2.85
2023-09-06T04:56:06.569Z,3.20
2023-09-06T05:01:13.090Z,3.03
2023-09-06T05:06:14.636Z,2.90
2023-09-06T05:11:16.296Z,3.03
2023-09-06T05:16:17.522Z,3.03
2023-09-06T05:21:18.652Z,3.20
2023-09-06T05:26:20.990Z,3.33
2023-09-06T05:31:22.525Z,3.03
2023-09-06T05:36:24.717Z,3.12
2023-09-06T05:41:25.576Z,3.03
2023-09-06T05:46:32.944Z,2.97
2023-09-06T05:51:40.628Z,3.05
2023-09-06T05:56:41.922Z,2.95
2023-09-06T06:01:44.599Z,3.60
2023-09-06T06:06:45.558Z,2.85
2023-09-06T06:11:46.660Z,3.42
2023-09-06T06:16:47.547Z,2.92
2023-09-06T06:21:48.613Z,3.40
2023-09-06T06:26:50.243Z,3.65
2023-09-06T06:31:51.584Z,3.30
2023-09-06T06:36:52.381Z,3.00
2023-09-06T06:41:53.191Z,2.90
2023-09-06T06:46:54.263Z,3.55
2023-09-06T06:51:55.146Z,2.92
2023-09-06T06:56:56.102Z,3.25
2023-09-06T07:01:57.168Z,3.83
2023-09-06T07:06:58.346Z,3.92
2023-09-06T07:11:59.215Z,3.60
2023-09-06T07:17:00.198Z,4.30
2023-09-06T07:22:01.741Z,3.40
2023-09-06T07:27:02.971Z,3.20
2023-09-06T07:32:04.102Z,4.20
2023-09-06T07:37:04.938Z,3.67
2023-09-06T07:42:05.789Z,3.30
2023-09-06T07:47:06.772Z,3.72
2023-09-06T07:52:08.955Z,3.62
2023-09-06T07:57:09.729Z,3.77
2023-09-06T08:02:10.949Z,3.40
2023-09-06T08:07:11.750Z,3.90
2023-09-06T08:12:13.250Z,3.95
2023-09-06T08:17:14.048Z,3.62
2023-09-06T08:22:14.956Z,3.78
2023-09-06T08:27:15.760Z,3.92
2023-09-06T08:32:16.921Z,3.95
2023-09-06T08:37:17.915Z,4.30
2023-09-06T08:42:21.111Z,3.97
2023-09-06T08:47:22.422Z,3.72
2023-09-06T08:52:23.596Z,4.07
2023-09-06T08:57:27.221Z,3.62
2023-09-06T09:02:28.516Z,3.97
2023-09-06T09:07:31.104Z,3.90
2023-09-06T09:12:32.254Z,4.28
2023-09-06T09:17:40.244Z,4.18
2023-09-06T09:22:50.956Z,3.80
2023-09-06T09:27:56.234Z,4.40
2023-09-06T09:33:02.053Z,5.20
2023-09-06T09:38:05.224Z,4.07
2023-09-06T09:43:06.104Z,4.05
2023-09-06T09:48:08.258Z,3.53
2023-09-06T09:53:20.620Z,4.10
2023-09-06T09:58:38.046Z,3.47
2023-09-06T10:03:39.539Z,3.78
2023-09-06T10:08:44.140Z,3.45
2023-09-06T10:13:48.378Z,3.37
2023-09-06T10:18:49.311Z,3.42
2023-09-06T10:23:51.207Z,3.67
2023-09-06T10:28:58.610Z,3.17
2023-09-06T10:34:00.148Z,3.25
2023-09-06T10:39:14.529Z,3.50
2023-09-06T10:44:15.378Z,3.70
2023-09-06T10:49:22.958Z,3.30
2023-09-06T10:54:45.814Z,3.00
2023-09-06T10:59:59.053Z,3.20
2023-09-06T11:05:06.047Z,4.00
2023-09-06T11:10:07.473Z,3.83
2023-09-06T11:15:10.341Z,3.78
2023-09-06T11:20:13.321Z,4.00
2023-09-06T11:25:22.640Z,3.28
2023-09-06T11:30:24.175Z,3.60
2023-09-06T11:35:37.974Z,3.53
2023-09-06T11:40:39.950Z,3.85
2023-09-06T11:45:43.518Z,4.15
2023-09-06T11:50:46.825Z,5.20
2023-09-06T11:55:50.702Z,4.40
2023-09-06T12:00:51.767Z,4.15
2023-09-06T12:05:55.545Z,3.70
2023-09-06T12:11:08.417Z,4.00
2023-09-06T12:16:11.812Z,4.60
2023-09-06T12:21:12.685Z,4.10
2023-09-06T12:26:15.806Z,4.05
2023-09-06T12:31:17.857Z,4.10
2023-09-06T12:36:19.639Z,3.87
2023-09-06T12:41:20.645Z,3.75
2023-09-06T12:46:21.824Z,3.58
2023-09-06T12:51:22.759Z,3.67
2023-09-06T12:56:23.603Z,3.20
2023-09-06T13:01:24.452Z,4.55
2023-09-06T13:06:25.556Z,4.80
2023-09-06T13:11:26.603Z,3.67
2023-09-06T13:16:27.693Z,3.85
2023-09-06T13:21:29.852Z,3.72
2023-09-06T13:26:31.069Z,4.22
2023-09-06T13:31:32.004Z,4.10
2023-09-06T13:36:36.781Z,3.93
2023-09-06T13:41:38.162Z,4.22
2023-09-06T13:46:39.163Z,4.10
2023-09-06T13:51:40.068Z,3.30
2023-09-06T13:56:41.858Z,3.95
2023-09-06T14:01:43.130Z,4.30
2023-09-06T14:06:44.167Z,3.90
2023-09-06T14:11:45.779Z,3.33
2023-09-06T14:16:46.627Z,3.75
2023-09-06T14:21:47.629Z,3.40
2023-09-06T14:26:48.565Z,3.83
2023-09-06T14:31:49.785Z,3.97
2023-09-06T14:36:51.032Z,3.33
2023-09-06T14:41:52.108Z,3.87
2023-09-06T14:46:53.120Z,3.30
2023-09-06T14:51:54.335Z,3.40
2023-09-06T14:56:58.307Z,3.40
2023-09-06T15:01:59.299Z,3.20
2023-09-06T15:07:01.023Z,3.60
2023-09-06T15:12:03.328Z,3.87
2023-09-06T15:17:04.628Z,3.40
2023-09-06T15:22:05.912Z,3.67
2023-09-06T15:27:06.798Z,3.30
2023-09-06T15:32:07.577Z,3.67
2023-09-06T15:37:09.364Z,3.28
2023-09-06T15:42:10.180Z,3.10
2023-09-06T15:47:11.231Z,3.60
2023-09-06T15:52:12.636Z,3.45
2023-09-06T15:57:13.757Z,3.70
2023-09-06T16:02:14.815Z,3.60
2023-09-06T16:07:16.062Z,3.17
2023-09-06T16:12:17.044Z,3.12
2023-09-06T16:17:18.531Z,3.60
2023-09-06T16:22:21.857Z,3.27
2023-09-06T16:27:23.233Z,3.42
2023-09-06T16:32:24.203Z,3.35
2023-09-06T16:37:25.224Z,3.50
2023-09-06T16:42:26.145Z,3.85
2023-09-06T16:47:26.953Z,3.17
2023-09-06T16:52:27.783Z,3.40
2023-09-06T16:57:28.593Z,3.47
2023-09-06T17:02:29.598Z,3.60
2023-09-06T17:07:32.899Z,3.60
2023-09-06T17:12:34.912Z,3.25
2023-09-06T17:17:35.847Z,3.62
2023-09-06T17:22:37.778Z,3.37
2023-09-06T17:27:42.105Z,3.62
2023-09-06T17:33:15.204Z,3.50
2023-09-06T17:38:17.666Z,3.50
2023-09-06T17:43:20.949Z,3.03
2023-09-06T17:48:22.960Z,3.45
2023-09-06T17:53:29.991Z,3.72
2023-09-06T17:58:31.149Z,4.10
2023-09-06T18:03:33.127Z,3.60
2023-09-06T18:08:35.326Z,3.97
2023-09-06T18:13:40.938Z,3.70
2023-09-06T18:18:43.026Z,3.67
2023-09-06T18:23:45.375Z,3.70
2023-09-06T18:33:47.080Z,3.35
2023-09-06T18:38:48.513Z,3.50
2023-09-06T18:43:49.419Z,3.60
2023-09-06T18:48:51.939Z,3.55
2023-09-06T18:58:53.631Z,3.15
2023-09-06T19:03:54.568Z,3.62
2023-09-06T19:08:56.924Z,3.40
2023-09-06T19:13:58.234Z,3.30
2023-09-06T19:18:59.110Z,3.65
2023-09-06T19:23:59.901Z,3.33
2023-09-06T19:29:01.205Z,3.67
2023-09-06T19:34:03.943Z,3.22
2023-09-06T19:39:04.924Z,3.60
2023-09-06T19:44:06.931Z,3.42
2023-09-06T19:49:07.946Z,3.50
2023-09-06T19:54:09.029Z,3.72
2023-09-06T19:59:09.936Z,3.72
2023-09-06T20:04:10.996Z,3.30
2023-09-06T20:09:13.243Z,3.37
2023-09-06T20:14:14.846Z,3.77
2023-09-06T20:19:15.685Z,3.10
2023-09-06T20:24:17.042Z,3.53
2023-09-06T20:29:18.079Z,3.37
2023-09-06T20:34:19.408Z,3.42
2023-09-06T20:39:20.640Z,3.40
2023-09-06T20:44:22.175Z,3.10
2023-09-06T20:49:23.393Z,3.45
2023-09-06T20:54:24.270Z,3.75
2023-09-06T20:59:25.117Z,3.40
2023-09-06T21:04:26.211Z,3.62
2023-09-06T21:09:27.282Z,3.80
2023-09-06T21:14:28.696Z,3.00
2023-09-06T21:19:29.516Z,3.50
2023-09-06T21:24:31.149Z,3.67
2023-09-06T21:29:32.110Z,3.47
2023-09-06T21:34:33.026Z,3.45
2023-09-06T21:39:34.172Z,3.67
2023-09-06T21:44:37.903Z,3.42
2023-09-06T21:49:38.784Z,4.37
2023-09-06T21:54:39.692Z,3.72
2023-09-06T21:59:40.556Z,3.70
2023-09-06T22:04:41.666Z,3.47
2023-09-06T22:10:01.522Z,3.47
2023-09-06T22:15:20.921Z,3.80
2023-09-06T22:20:23.603Z,3.10
2023-09-06T22:30:25.284Z,3.55
2023-09-06T22:35:28.361Z,3.70
2023-09-06T22:40:29.296Z,3.25
2023-09-06T22:45:30.186Z,3.35
2023-09-06T22:50:30.977Z,3.45
2023-09-06T22:55:31.956Z,3.50
2023-09-06T23:00:35.990Z,3.62
2023-09-06T23:05:37.203Z,3.20
2023-09-06T23:10:39.064Z,2.92
2023-09-06T23:15:39.960Z,2.97
2023-09-06T23:20:42.607Z,3.20
2023-09-06T23:25:50.485Z,3.47
2023-09-06T23:30:55.643Z,2.87
2023-09-06T23:35:56.481Z,3.22
2023-09-06T23:40:57.851Z,2.90
2023-09-06T23:45:58.824Z,3.50
2023-09-06T23:50:59.889Z,3.33
2023-09-06T23:56:04.051Z,2.80
